Impacts METAR Board
IDs:

KEFD - Houston/Ellington Ar, TX, US

Updated at: 0600 UTC 19 Aug 2019
Potential Impact None Slight Moderate High
Time 18/18Z 18/19Z 18/20Z 18/21Z 18/22Z 18/23Z 19/00Z 19/01Z 19/02Z 19/03Z 19/04Z 19/05Z 19/06Z
Temp90 91 91 91 91 90 88 86 84 84 82
Dewpt75 75 73 75 75 75 73 73 73 73 73
Altim29.92 29.92 29.90 29.88 29.87 29.88 29.89 29.89 29.90 29.91 29.93
VIS10 10 10 10 10 10 10 10 10 10 10
CIG40 30 250 250 250 -- -- -- -- -- --
CoverBKNBKNBKNBKNBKNSCTSCTSCTSCTFEWFEW
FltCatVFRMVFRVFRVFRVFRVFRVFRVFRVFRVFRVFR
WX-RARA------------------
WDir190190180170170170160160160150
WSpd10 10 6 6 12 10 11 8 7 4
WGst-- -- -- -- -- -- -- -- -- -- --
Raw hourly METARs
KEFD 181750Z 19010KT 10SM -RA BKN040 BKN060 BKN250 32/24 A2992
KEFD 181850Z 19010KT 10SM RA BKN030 BKN110 BKN250 33/24 A2992
KEFD 181950Z 18006KT 10SM FEW030 SCT110 BKN250 33/23 A2990
KEFD 182050Z 17006KT 10SM FEW040 SCT110 BKN250 33/24 A2988
KEFD 182150Z 160KT 12 10SM SCT040 SCT100 BKN250 33/24 A2987
KEFD 182250Z 17012KT 10SM FEW030 SCT250 32/24 A2988
KEFD 182350Z 17010KT 10SM FEW030 SCT250 31/23 A2989
KEFD 190050Z 16011KT 10SM FEW030 FEW065 SCT250 30/23 A2989
KEFD 190150Z 16008KT 10SM FEW100 SCT250 29/23 A2990
KEFD 190250Z 16007KT 10SM FEW250 29/23 A2991
KEFD 190350Z 15004KT 10SM FEW250 28/23 A2993





Page loaded:  06:05 UTC  |   11:05 PM Pacific  |   12:05 AM Mountain  |   01:05 AM Central  |   02:05 AM Eastern

 

ADVISORIES

FORECASTS

FORECASTS

OBSERVATIONS

USER TOOLS

ABOUT US